createdAt,value
2016-11-20T00:00:04.207Z,999.07
2016-11-20T00:01:04.195Z,999.06
2016-11-20T00:02:04.175Z,999.14
2016-11-20T00:03:04.162Z,999.15
2016-11-20T00:04:04.137Z,999.11
2016-11-20T00:05:04.137Z,999.07
2016-11-20T00:06:04.111Z,999.07
2016-11-20T00:07:04.088Z,999.02
2016-11-20T00:08:04.082Z,999.02
2016-11-20T00:09:04.057Z,998.99
2016-11-20T00:10:04.040Z,998.99
2016-11-20T00:11:04.023Z,998.98
2016-11-20T00:12:04.008Z,998.96
2016-11-20T00:13:03.988Z,998.93
2016-11-20T00:14:03.971Z,998.93
2016-11-20T00:15:03.956Z,998.89
2016-11-20T00:16:03.942Z,998.84
2016-11-20T00:17:03.919Z,998.89
2016-11-20T00:18:03.906Z,998.85
2016-11-20T00:19:03.887Z,998.85
2016-11-20T00:20:03.874Z,998.86
2016-11-20T00:21:03.853Z,998.83
2016-11-20T00:22:03.838Z,998.8
2016-11-20T00:23:03.818Z,998.75
2016-11-20T00:24:03.807Z,998.75
2016-11-20T00:25:03.788Z,998.74
2016-11-20T00:26:03.777Z,998.74
2016-11-20T00:27:03.757Z,998.76
2016-11-20T00:28:03.738Z,998.74
2016-11-20T00:29:03.717Z,998.68
2016-11-20T00:30:03.705Z,998.66
2016-11-20T00:31:03.680Z,998.63
2016-11-20T00:32:03.665Z,998.62
2016-11-20T00:33:03.651Z,998.65
2016-11-20T00:34:03.635Z,998.62
2016-11-20T00:35:03.616Z,998.7
2016-11-20T00:36:03.604Z,998.67
2016-11-20T00:37:03.582Z,998.65
2016-11-20T00:38:03.562Z,998.64
2016-11-20T00:39:03.548Z,998.65
2016-11-20T00:40:03.529Z,998.61
2016-11-20T00:41:03.514Z,998.6
2016-11-20T00:42:03.501Z,998.6
2016-11-20T00:43:03.482Z,998.54
2016-11-20T00:44:03.466Z,998.59
2016-11-20T00:45:03.445Z,998.57
2016-11-20T00:46:03.428Z,998.54
2016-11-20T00:47:03.418Z,998.54
2016-11-20T00:48:03.400Z,998.54
2016-11-20T00:49:03.378Z,998.48
2016-11-20T00:50:03.363Z,998.51
2016-11-20T00:51:03.347Z,998.43
2016-11-20T00:52:03.328Z,998.46
2016-11-20T00:53:03.315Z,998.4
2016-11-20T00:54:03.289Z,998.38
2016-11-20T00:55:03.284Z,998.37
2016-11-20T00:56:03.263Z,998.36
2016-11-20T00:57:03.246Z,998.33
2016-11-20T00:58:03.227Z,998.31
2016-11-20T00:59:03.215Z,998.35
2016-11-20T01:00:03.190Z,998.32
2016-11-20T01:01:03.175Z,998.34
2016-11-20T01:02:03.160Z,998.34
2016-11-20T01:03:03.149Z,998.32
2016-11-20T01:04:03.123Z,998.31
2016-11-20T01:05:03.104Z,998.22
2016-11-20T01:06:03.089Z,998.28
2016-11-20T01:07:03.069Z,998.28
2016-11-20T01:08:03.058Z,998.3
2016-11-20T01:09:03.039Z,998.28
2016-11-20T01:10:03.020Z,998.3
2016-11-20T01:11:03.004Z,998.28
2016-11-20T01:12:02.987Z,998.28
2016-11-20T01:13:02.971Z,998.3
2016-11-20T01:14:02.953Z,998.26
2016-11-20T01:15:02.939Z,998.25
2016-11-20T01:16:02.921Z,998.25
2016-11-20T01:17:02.908Z,998.25
2016-11-20T01:18:02.886Z,998.25
2016-11-20T01:19:02.869Z,998.21
2016-11-20T01:20:02.855Z,998.17
2016-11-20T01:21:02.835Z,998.22
2016-11-20T01:22:02.819Z,998.19
2016-11-20T01:23:02.802Z,998.19
2016-11-20T01:24:02.785Z,998.13
2016-11-20T01:25:02.769Z,998.13
2016-11-20T01:26:02.750Z,998.13
2016-11-20T01:27:02.737Z,998.06
2016-11-20T01:28:02.722Z,998.07
2016-11-20T01:29:02.705Z,998.04
2016-11-20T01:30:02.691Z,998.03
2016-11-20T01:31:02.678Z,998.01
2016-11-20T01:32:02.652Z,997.99
2016-11-20T01:33:02.634Z,998
2016-11-20T01:34:02.621Z,998.05
2016-11-20T01:35:02.603Z,997.96
2016-11-20T01:36:02.585Z,997.94
2016-11-20T01:37:02.567Z,997.92
2016-11-20T01:38:02.555Z,997.88
2016-11-20T01:39:02.536Z,997.9
2016-11-20T01:40:02.519Z,997.83
2016-11-20T01:41:02.502Z,997.86
2016-11-20T01:42:02.490Z,997.84
2016-11-20T01:43:02.468Z,997.82
2016-11-20T01:44:02.450Z,997.85
2016-11-20T01:45:02.435Z,997.85
2016-11-20T01:46:02.418Z,997.8
2016-11-20T01:47:02.399Z,997.76
2016-11-20T01:48:02.384Z,997.75
2016-11-20T01:49:02.366Z,997.71
2016-11-20T01:50:02.349Z,997.68
2016-11-20T01:51:02.332Z,997.7
2016-11-20T01:52:02.313Z,997.71
2016-11-20T01:53:02.299Z,997.65
2016-11-20T01:54:02.279Z,997.58
2016-11-20T01:55:02.265Z,997.58
2016-11-20T01:56:02.250Z,997.59
2016-11-20T01:57:02.232Z,997.53
2016-11-20T01:58:02.212Z,997.55
2016-11-20T01:59:02.198Z,997.56
2016-11-20T02:00:02.180Z,997.46
2016-11-20T02:01:02.166Z,997.46
2016-11-20T02:02:02.147Z,997.48
2016-11-20T02:03:02.162Z,997.47
2016-11-20T02:04:02.113Z,997.43
2016-11-20T02:05:02.095Z,997.47
2016-11-20T02:06:02.080Z,997.46
2016-11-20T02:07:02.063Z,997.39
2016-11-20T02:08:02.047Z,997.37
2016-11-20T02:09:02.029Z,997.35
2016-11-20T02:10:02.016Z,997.33
2016-11-20T02:11:01.996Z,997.26
2016-11-20T02:12:01.979Z,997.25
2016-11-20T02:13:01.960Z,997.18
2016-11-20T02:14:01.945Z,997.19
2016-11-20T02:15:01.928Z,997.19
2016-11-20T02:16:01.911Z,997.16
2016-11-20T02:17:01.897Z,997.13
2016-11-20T02:18:01.878Z,997.1
2016-11-20T02:19:01.863Z,997.07
2016-11-20T02:20:01.844Z,997.07
2016-11-20T02:21:01.827Z,997.09
2016-11-20T02:22:01.810Z,997.06
2016-11-20T02:23:01.795Z,997.07
2016-11-20T02:24:01.778Z,997.05
2016-11-20T02:25:01.760Z,997.07
2016-11-20T02:26:01.744Z,997.09
2016-11-20T02:27:01.726Z,997.1
2016-11-20T02:28:01.709Z,997.1
2016-11-20T02:29:01.692Z,997.07
2016-11-20T02:30:01.676Z,997.12
2016-11-20T02:31:01.659Z,997.13
2016-11-20T02:32:01.642Z,997.12
2016-11-20T02:33:01.625Z,997.12
2016-11-20T02:34:01.608Z,997.12
2016-11-20T02:35:01.591Z,997.13
2016-11-20T02:36:01.574Z,997.11
2016-11-20T02:37:01.557Z,997.09
2016-11-20T02:38:01.541Z,997.04
2016-11-20T02:39:01.522Z,997.07
2016-11-20T02:40:01.511Z,997.05
2016-11-20T02:41:01.487Z,997.05
2016-11-20T02:42:01.472Z,997.03
2016-11-20T02:43:01.455Z,997.06
2016-11-20T02:44:01.440Z,997.05
2016-11-20T02:45:01.423Z,997.09
2016-11-20T02:46:01.509Z,997.04
2016-11-20T02:47:01.391Z,997
2016-11-20T02:48:01.373Z,996.96
2016-11-20T02:49:01.355Z,996.96
2016-11-20T02:50:01.338Z,996.95
2016-11-20T02:51:01.321Z,996.93
2016-11-20T02:52:01.304Z,996.89
2016-11-20T02:53:01.285Z,996.91
2016-11-20T02:54:01.272Z,996.88
2016-11-20T02:55:01.253Z,996.81
2016-11-20T02:56:01.240Z,996.86
2016-11-20T02:57:01.218Z,996.87
2016-11-20T02:58:01.203Z,996.82
2016-11-20T02:59:01.186Z,996.76
2016-11-20T03:00:01.168Z,996.73
2016-11-20T03:01:01.152Z,996.76
2016-11-20T03:02:01.136Z,996.67
2016-11-20T03:03:01.117Z,996.69
2016-11-20T03:04:01.100Z,996.64
2016-11-20T03:05:01.084Z,996.6
2016-11-20T03:06:01.066Z,996.54
2016-11-20T03:07:01.050Z,996.54
2016-11-20T03:08:01.033Z,996.52
2016-11-20T03:09:01.018Z,996.51
2016-11-20T03:10:01.001Z,996.45
2016-11-20T03:11:00.983Z,996.42
2016-11-20T03:12:00.964Z,996.35
2016-11-20T03:13:00.949Z,996.34
2016-11-20T03:14:00.930Z,996.31
2016-11-20T03:15:00.913Z,996.27
2016-11-20T03:16:00.896Z,996.22
2016-11-20T03:17:00.884Z,996.2
2016-11-20T03:18:00.863Z,996.14
2016-11-20T03:19:00.848Z,996.12
2016-11-20T03:20:00.829Z,996.18
2016-11-20T03:21:00.818Z,996.17
2016-11-20T03:22:00.794Z,996.18
2016-11-20T03:23:00.776Z,996.26
2016-11-20T03:24:00.764Z,996.22
2016-11-20T03:25:00.745Z,996.16
2016-11-20T03:26:00.728Z,996.1
2016-11-20T03:27:00.712Z,996.12
2016-11-20T03:28:00.695Z,996.11
2016-11-20T03:29:00.678Z,996.08
2016-11-20T03:30:00.664Z,996.06
2016-11-20T03:31:00.645Z,996.01
2016-11-20T03:32:00.626Z,995.96
2016-11-20T03:33:00.608Z,995.87
2016-11-20T03:34:00.593Z,995.83
2016-11-20T03:35:00.574Z,995.79
2016-11-20T03:36:00.559Z,995.69
2016-11-20T03:37:00.541Z,995.5
2016-11-20T03:38:00.523Z,995.49
2016-11-20T03:39:00.507Z,995.43
2016-11-20T03:40:00.490Z,995.42
2016-11-20T03:41:00.473Z,995.39
2016-11-20T03:42:00.453Z,995.49
2016-11-20T03:43:00.439Z,995.5
2016-11-20T03:44:00.419Z,995.51
2016-11-20T03:45:00.405Z,995.65
2016-11-20T03:46:00.388Z,995.62
2016-11-20T03:47:00.375Z,995.65
2016-11-20T03:48:00.354Z,995.64
2016-11-20T03:49:00.339Z,995.58
2016-11-20T03:50:00.319Z,995.52
2016-11-20T03:51:00.302Z,995.44
2016-11-20T03:52:00.283Z,995.47
2016-11-20T03:53:00.268Z,995.5
2016-11-20T03:54:00.253Z,995.45
2016-11-20T03:55:00.231Z,995.4
2016-11-20T03:56:00.218Z,995.35
2016-11-20T03:57:00.200Z,995.29
2016-11-20T03:58:00.183Z,995.12
2016-11-20T03:59:00.166Z,995.15
2016-11-20T04:00:00.149Z,995.23
2016-11-20T04:01:00.136Z,995.28
2016-11-20T04:02:00.114Z,995.26
2016-11-20T04:03:00.099Z,995.25
2016-11-20T04:04:00.082Z,995.2
2016-11-20T04:05:00.065Z,995.17
2016-11-20T04:06:00.047Z,995.1
2016-11-20T04:07:00.030Z,995.08
2016-11-20T04:08:00.013Z,995.13
2016-11-20T04:08:59.995Z,995.16
2016-11-20T04:09:59.978Z,995.14
2016-11-20T04:10:59.957Z,995.13
2016-11-20T04:11:59.944Z,995.12
2016-11-20T04:12:59.926Z,995.1
2016-11-20T04:13:59.909Z,995.12
2016-11-20T04:14:59.895Z,995.09
2016-11-20T04:15:59.876Z,995.09
2016-11-20T04:16:59.859Z,995.05
2016-11-20T04:17:59.840Z,995.08
2016-11-20T04:18:59.825Z,995.1
2016-11-20T04:19:59.807Z,995.09
2016-11-20T04:20:59.792Z,995.08
2016-11-20T04:21:59.773Z,995.06
2016-11-20T04:22:59.756Z,995.04
2016-11-20T04:23:59.736Z,994.97
2016-11-20T04:24:59.723Z,995.02
2016-11-20T04:25:59.705Z,994.99
2016-11-20T04:26:59.689Z,995.01
2016-11-20T04:27:59.671Z,994.92
2016-11-20T04:28:59.654Z,994.93
2016-11-20T04:29:59.637Z,994.87
2016-11-20T04:30:59.623Z,994.8
2016-11-20T04:31:59.602Z,994.79
2016-11-20T04:32:59.583Z,994.78
2016-11-20T04:33:59.568Z,994.76
2016-11-20T04:34:59.553Z,994.71
2016-11-20T04:35:59.534Z,994.71
2016-11-20T04:36:59.518Z,994.69
2016-11-20T04:37:59.505Z,994.62
2016-11-20T04:38:59.484Z,994.65
2016-11-20T04:39:59.469Z,994.6
2016-11-20T04:40:59.448Z,994.57
2016-11-20T04:41:59.431Z,994.52
2016-11-20T04:42:59.435Z,994.43
2016-11-20T04:43:59.397Z,994.48
2016-11-20T04:44:59.384Z,994.46
2016-11-20T04:45:59.363Z,994.45
2016-11-20T04:46:59.344Z,994.41
2016-11-20T04:47:59.328Z,994.36
2016-11-20T04:48:59.311Z,994.38
2016-11-20T04:49:59.295Z,994.27
2016-11-20T04:50:59.274Z,994.25
2016-11-20T04:51:59.265Z,994.22
2016-11-20T04:52:59.242Z,994.19
2016-11-20T04:53:59.230Z,994.22
2016-11-20T04:54:59.209Z,994.13
2016-11-20T04:55:59.193Z,994.15
2016-11-20T04:56:59.175Z,994.11
2016-11-20T04:57:59.156Z,994.08
2016-11-20T04:58:59.144Z,994.05
2016-11-20T04:59:59.123Z,993.98
2016-11-20T05:00:59.105Z,994
2016-11-20T05:01:59.088Z,993.95
2016-11-20T05:02:59.071Z,993.99
2016-11-20T05:03:59.053Z,994.02
2016-11-20T05:04:59.036Z,994.03
2016-11-20T05:05:59.019Z,994.02
2016-11-20T05:06:58.998Z,994
2016-11-20T05:07:58.982Z,993.95
2016-11-20T05:08:58.967Z,993.94
2016-11-20T05:09:58.952Z,993.98
2016-11-20T05:10:58.935Z,993.96
2016-11-20T05:11:58.916Z,993.86
2016-11-20T05:12:58.903Z,993.82
2016-11-20T05:13:58.880Z,993.74
2016-11-20T05:14:58.863Z,993.72
2016-11-20T05:15:58.848Z,993.7
2016-11-20T05:16:58.834Z,993.66
2016-11-20T05:17:58.817Z,993.62
2016-11-20T05:18:58.796Z,993.59
2016-11-20T05:19:58.781Z,993.56
2016-11-20T05:20:58.763Z,993.54
2016-11-20T05:21:58.748Z,993.61
2016-11-20T05:22:58.729Z,993.51
2016-11-20T05:23:58.710Z,993.47
2016-11-20T05:24:58.695Z,993.54
2016-11-20T05:25:58.678Z,993.51
2016-11-20T05:26:58.664Z,993.41
2016-11-20T05:27:58.644Z,993.45
2016-11-20T05:28:58.628Z,993.37
2016-11-20T05:29:58.610Z,993.27
2016-11-20T05:30:58.592Z,993.21
2016-11-20T05:31:58.574Z,993.24
2016-11-20T05:32:58.557Z,993.15
2016-11-20T05:33:58.545Z,993.18
2016-11-20T05:34:58.526Z,993.26
2016-11-20T05:35:58.513Z,993.23
2016-11-20T05:36:58.491Z,993.26
2016-11-20T05:37:58.474Z,993.28
2016-11-20T05:38:58.457Z,993.21
2016-11-20T05:39:58.441Z,993.17
2016-11-20T05:40:58.424Z,993.18
2016-11-20T05:41:58.407Z,993.08
2016-11-20T05:42:58.389Z,993.03
2016-11-20T05:43:58.375Z,992.96
2016-11-20T05:44:58.355Z,992.93
2016-11-20T05:45:58.340Z,992.83
2016-11-20T05:46:58.326Z,992.79
2016-11-20T05:47:58.306Z,992.73
2016-11-20T05:48:58.287Z,992.71
2016-11-20T05:49:58.273Z,992.71
2016-11-20T05:50:58.255Z,992.71
2016-11-20T05:51:58.239Z,992.69
2016-11-20T05:52:58.220Z,992.67
2016-11-20T05:53:58.204Z,992.6
2016-11-20T05:54:58.187Z,992.63
2016-11-20T05:55:58.173Z,992.62
2016-11-20T05:56:58.156Z,992.54
2016-11-20T05:57:58.137Z,992.57
2016-11-20T05:58:58.124Z,992.59
2016-11-20T05:59:58.107Z,992.57
2016-11-20T06:00:58.090Z,992.56
2016-11-20T06:01:58.068Z,992.56
2016-11-20T06:02:58.055Z,992.53
2016-11-20T06:03:58.040Z,992.43
2016-11-20T06:04:58.021Z,992.43
2016-11-20T06:05:58.005Z,992.39
2016-11-20T06:06:57.988Z,992.35
2016-11-20T06:07:57.970Z,992.29
2016-11-20T06:08:57.954Z,992.3
2016-11-20T06:09:57.940Z,992.23
2016-11-20T06:10:57.924Z,992.19
2016-11-20T06:11:57.907Z,992.12
2016-11-20T06:12:57.889Z,992.03
2016-11-20T06:13:57.872Z,992
2016-11-20T06:14:57.857Z,991.92
2016-11-20T06:15:57.841Z,991.85
2016-11-20T06:16:57.827Z,991.77
2016-11-20T06:17:57.811Z,991.81
2016-11-20T06:18:57.791Z,991.72
2016-11-20T06:19:57.773Z,991.76
2016-11-20T06:20:57.756Z,991.75
2016-11-20T06:21:57.743Z,991.61
2016-11-20T06:22:57.724Z,991.55
2016-11-20T06:23:57.708Z,991.4
2016-11-20T06:24:57.708Z,991.38
2016-11-20T06:25:57.678Z,991.38
2016-11-20T06:26:57.658Z,991.43
2016-11-20T06:27:57.643Z,991.43
2016-11-20T06:28:57.624Z,991.3
2016-11-20T06:29:57.609Z,991.3
2016-11-20T06:30:57.593Z,991.31
2016-11-20T06:31:57.576Z,991.19
2016-11-20T06:32:57.558Z,991.34
2016-11-20T06:33:57.547Z,991.13
2016-11-20T06:34:57.527Z,991.17
2016-11-20T06:35:57.509Z,991.11
2016-11-20T06:36:57.494Z,991.04
2016-11-20T06:37:57.477Z,990.99
2016-11-20T06:38:57.461Z,990.92
2016-11-20T06:39:57.445Z,990.85
2016-11-20T06:40:57.428Z,990.86
2016-11-20T06:41:57.412Z,990.75
2016-11-20T06:42:57.395Z,990.71
2016-11-20T06:43:57.379Z,990.72
2016-11-20T06:44:57.361Z,990.46
2016-11-20T06:45:57.346Z,990.56
2016-11-20T06:46:57.329Z,990.53
2016-11-20T06:47:57.312Z,990.55
2016-11-20T06:48:57.295Z,990.54
2016-11-20T06:49:57.278Z,990.53
2016-11-20T06:50:57.264Z,990.5
2016-11-20T06:51:57.247Z,990.39
2016-11-20T06:52:57.231Z,990.45
2016-11-20T06:53:57.215Z,990.4
2016-11-20T06:54:57.202Z,990.32
2016-11-20T06:55:57.182Z,990.3
2016-11-20T06:56:57.165Z,990.37
2016-11-20T06:57:57.150Z,990.45
2016-11-20T06:58:57.137Z,990.43
2016-11-20T06:59:57.118Z,990.31
2016-11-20T07:00:57.098Z,990.3
2016-11-20T07:01:57.088Z,990.24
2016-11-20T07:02:57.068Z,990.31
2016-11-20T07:03:57.051Z,990.31
2016-11-20T07:04:57.036Z,990.3
2016-11-20T07:05:57.023Z,990.26
2016-11-20T07:06:57.004Z,990.18
2016-11-20T07:07:56.987Z,990.14
2016-11-20T07:08:56.971Z,990.03
2016-11-20T07:09:56.958Z,989.95
2016-11-20T07:10:56.936Z,989.98
2016-11-20T07:11:56.922Z,989.97
2016-11-20T07:12:56.903Z,989.88
2016-11-20T07:13:56.888Z,989.75
2016-11-20T07:14:56.874Z,989.7
2016-11-20T07:15:56.855Z,989.55
2016-11-20T07:16:56.840Z,989.54
2016-11-20T07:17:56.823Z,989.6
2016-11-20T07:18:56.808Z,989.76
2016-11-20T07:19:56.787Z,989.56
2016-11-20T07:20:56.774Z,989.58
2016-11-20T07:21:56.760Z,989.47
2016-11-20T07:22:56.743Z,989.44
2016-11-20T07:23:56.724Z,989.52
2016-11-20T07:24:56.711Z,989.43
2016-11-20T07:25:56.698Z,989.45
2016-11-20T07:26:56.692Z,989.45
2016-11-20T07:27:56.661Z,989.47
2016-11-20T07:28:56.646Z,989.33
2016-11-20T07:29:56.631Z,989.25
2016-11-20T07:30:56.613Z,989.31
2016-11-20T07:31:56.598Z,989.31
2016-11-20T07:32:56.583Z,989.15
2016-11-20T07:33:56.564Z,989.08
2016-11-20T07:34:56.553Z,989.01
2016-11-20T07:35:56.537Z,989.03
2016-11-20T07:36:56.518Z,988.99
2016-11-20T07:37:56.501Z,988.83
2016-11-20T07:38:56.484Z,988.94
2016-11-20T07:39:56.468Z,988.86
2016-11-20T07:40:56.453Z,988.84
2016-11-20T07:41:56.440Z,988.76
2016-11-20T07:42:56.425Z,988.71
2016-11-20T07:43:56.403Z,988.66
2016-11-20T07:44:56.390Z,988.63
2016-11-20T07:45:56.371Z,988.7
2016-11-20T07:46:56.356Z,988.58
2016-11-20T07:47:56.342Z,988.56
2016-11-20T07:48:56.325Z,988.46
2016-11-20T07:49:56.308Z,988.53
2016-11-20T07:50:56.289Z,988.64
2016-11-20T07:51:56.274Z,988.68
2016-11-20T07:52:56.257Z,988.69
2016-11-20T07:53:56.241Z,988.69
2016-11-20T07:54:56.226Z,988.66
2016-11-20T07:55:56.210Z,988.62
2016-11-20T07:56:56.196Z,988.59
2016-11-20T07:57:56.181Z,988.63
2016-11-20T07:58:56.165Z,988.67
2016-11-20T07:59:56.145Z,988.61
2016-11-20T08:00:56.130Z,988.59
2016-11-20T08:01:56.115Z,988.5
2016-11-20T08:02:56.100Z,988.48
2016-11-20T08:03:56.080Z,988.49
2016-11-20T08:04:56.066Z,988.39
2016-11-20T08:05:56.050Z,988.36
2016-11-20T08:06:56.037Z,988.37
2016-11-20T08:07:56.018Z,988.26
2016-11-20T08:08:56.002Z,988.27
2016-11-20T08:09:55.985Z,988.24
2016-11-20T08:10:55.968Z,988.15
2016-11-20T08:11:55.952Z,988.14
2016-11-20T08:12:55.939Z,988.15
2016-11-20T08:13:55.920Z,988.11
2016-11-20T08:14:55.904Z,988.23
2016-11-20T08:15:55.889Z,988.13
2016-11-20T08:16:55.871Z,988.03
2016-11-20T08:17:55.854Z,988.05
2016-11-20T08:18:55.838Z,988.03
2016-11-20T08:19:55.825Z,988
2016-11-20T08:20:55.809Z,988.03
2016-11-20T08:21:55.790Z,988.02
2016-11-20T08:22:55.777Z,988.08
2016-11-20T08:23:55.760Z,987.99
2016-11-20T08:24:55.742Z,988.07
2016-11-20T08:25:55.728Z,988.1
2016-11-20T08:26:55.709Z,988.2
2016-11-20T08:27:55.694Z,988.32
2016-11-20T08:28:55.679Z,988.45
2016-11-20T08:29:55.662Z,988.37
2016-11-20T08:30:55.651Z,988.41
2016-11-20T08:31:55.629Z,988.38
2016-11-20T08:32:55.615Z,988.32
2016-11-20T08:33:55.596Z,988.38
2016-11-20T08:34:55.581Z,988.37
2016-11-20T08:35:55.564Z,988.31
2016-11-20T08:36:55.547Z,988.29
2016-11-20T08:37:55.534Z,988.21
2016-11-20T08:38:55.516Z,988.27
2016-11-20T08:39:55.499Z,988.13
2016-11-20T08:40:55.484Z,988.2
2016-11-20T08:41:55.468Z,988.11
2016-11-20T08:42:55.454Z,988.14
2016-11-20T08:43:55.434Z,988.12
2016-11-20T08:44:55.420Z,988.23
2016-11-20T08:45:55.406Z,988.11
2016-11-20T08:46:55.388Z,988.27
2016-11-20T08:47:55.376Z,988.21
2016-11-20T08:48:55.358Z,988.16
2016-11-20T08:49:55.339Z,988.07
2016-11-20T08:50:55.325Z,987.9
2016-11-20T08:51:55.319Z,987.78
2016-11-20T08:52:55.293Z,987.65
2016-11-20T08:53:55.280Z,987.63
2016-11-20T08:54:55.260Z,987.64
2016-11-20T08:55:55.250Z,987.59
2016-11-20T08:56:55.231Z,987.61
2016-11-20T08:57:55.211Z,987.87
2016-11-20T08:58:55.196Z,987.87
2016-11-20T08:59:55.180Z,987.8
2016-11-20T09:00:55.165Z,987.8
2016-11-20T09:01:55.149Z,987.85
2016-11-20T09:02:55.131Z,987.84
2016-11-20T09:03:55.114Z,987.8
2016-11-20T09:04:55.099Z,987.89
2016-11-20T09:05:55.089Z,987.79
2016-11-20T09:06:55.068Z,987.85
2016-11-20T09:07:55.058Z,987.91
2016-11-20T09:08:55.034Z,987.87
2016-11-20T09:09:55.018Z,987.79
2016-11-20T09:10:55.001Z,987.86
2016-11-20T09:11:54.984Z,987.91
2016-11-20T09:12:54.970Z,987.87
2016-11-20T09:13:54.952Z,987.86
2016-11-20T09:14:54.933Z,987.86
2016-11-20T09:15:54.922Z,987.82
2016-11-20T09:16:54.904Z,987.83
2016-11-20T09:17:54.886Z,987.82
2016-11-20T09:18:54.872Z,987.87
2016-11-20T09:19:54.854Z,987.79
2016-11-20T09:20:54.839Z,987.73
2016-11-20T09:21:54.823Z,987.69
2016-11-20T09:22:54.808Z,987.61
2016-11-20T09:23:54.789Z,987.63
2016-11-20T09:24:54.772Z,987.5
2016-11-20T09:25:54.756Z,987.51
2016-11-20T09:26:54.742Z,987.63
2016-11-20T09:27:54.725Z,987.59
2016-11-20T09:28:54.707Z,987.58
2016-11-20T09:29:54.692Z,987.61
2016-11-20T09:30:54.677Z,987.55
2016-11-20T09:31:54.658Z,987.57
2016-11-20T09:32:54.640Z,987.51
2016-11-20T09:33:54.628Z,987.51
2016-11-20T09:34:54.610Z,987.65
2016-11-20T09:35:54.595Z,987.68
2016-11-20T09:36:54.576Z,987.66
2016-11-20T09:37:54.560Z,987.6
2016-11-20T09:38:54.549Z,987.58
2016-11-20T09:39:54.532Z,987.61
2016-11-20T09:40:54.511Z,987.64
2016-11-20T09:41:54.499Z,987.65
2016-11-20T09:42:54.480Z,987.6
2016-11-20T09:43:54.465Z,987.61
2016-11-20T09:44:54.448Z,987.52
2016-11-20T09:45:54.430Z,987.47
2016-11-20T09:46:54.415Z,987.46
2016-11-20T09:47:54.398Z,987.51
2016-11-20T09:48:54.383Z,987.45
2016-11-20T09:49:54.367Z,987.38
2016-11-20T09:50:54.353Z,987.37
2016-11-20T09:51:54.333Z,987.33
2016-11-20T09:52:54.327Z,987.38
2016-11-20T09:53:54.301Z,987.42
2016-11-20T09:54:54.289Z,987.38
2016-11-20T09:55:54.270Z,987.43
2016-11-20T09:56:54.253Z,987.43
2016-11-20T09:57:54.237Z,987.48
2016-11-20T09:58:54.222Z,987.33
2016-11-20T09:59:54.203Z,987.39
2016-11-20T10:00:54.189Z,987.36
2016-11-20T10:01:54.172Z,987.41
2016-11-20T10:02:54.158Z,987.38
2016-11-20T10:03:54.140Z,987.28
2016-11-20T10:04:54.124Z,987.39
2016-11-20T10:05:54.108Z,987.24
2016-11-20T10:06:54.101Z,987.21
2016-11-20T10:07:54.076Z,987.26
2016-11-20T10:08:54.059Z,987.22
2016-11-20T10:09:54.045Z,987.18
2016-11-20T10:10:54.031Z,987.18
2016-11-20T10:11:54.010Z,987.25
2016-11-20T10:12:53.995Z,987.31
2016-11-20T10:13:53.980Z,987.23
2016-11-20T10:14:53.965Z,987.27
2016-11-20T10:15:53.948Z,987.32
2016-11-20T10:16:53.930Z,987.19
2016-11-20T10:17:53.917Z,987.17
2016-11-20T10:18:53.901Z,987.08
2016-11-20T10:19:53.883Z,987.17
2016-11-20T10:20:53.870Z,987.19
2016-11-20T10:21:53.852Z,987.18
2016-11-20T10:22:53.835Z,987.02
2016-11-20T10:23:53.818Z,986.95
2016-11-20T10:24:53.803Z,987.01
2016-11-20T10:25:53.785Z,987.01
2016-11-20T10:26:53.770Z,987.07
2016-11-20T10:27:53.757Z,987.07
2016-11-20T10:28:53.738Z,987
2016-11-20T10:29:53.722Z,987.04
2016-11-20T10:30:53.705Z,987.01
2016-11-20T10:31:53.689Z,987.02
2016-11-20T10:32:53.672Z,987.06
2016-11-20T10:33:53.658Z,986.87
2016-11-20T10:34:53.642Z,986.87
2016-11-20T10:35:53.625Z,986.83
2016-11-20T10:36:53.609Z,986.83
2016-11-20T10:37:53.589Z,986.86
2016-11-20T10:38:53.578Z,986.84
2016-11-20T10:39:53.563Z,986.71
2016-11-20T10:40:53.570Z,986.78
2016-11-20T10:41:53.530Z,986.68
2016-11-20T10:42:53.515Z,986.78
2016-11-20T10:43:53.495Z,986.77
2016-11-20T10:44:53.483Z,986.78
2016-11-20T10:45:53.463Z,986.74
2016-11-20T10:46:53.448Z,986.71
2016-11-20T10:47:53.433Z,986.64
2016-11-20T10:48:53.415Z,986.58
2016-11-20T10:49:53.400Z,986.65
2016-11-20T10:50:53.382Z,986.65
2016-11-20T10:51:53.367Z,986.62
2016-11-20T10:52:53.349Z,986.56
2016-11-20T10:53:53.338Z,986.6
2016-11-20T10:54:53.319Z,986.42
2016-11-20T10:55:53.303Z,986.42
2016-11-20T10:56:53.286Z,986.51
2016-11-20T10:57:53.273Z,986.44
2016-11-20T10:58:53.255Z,986.44
2016-11-20T10:59:53.238Z,986.34
2016-11-20T11:00:53.221Z,986.26
2016-11-20T11:01:53.206Z,986.29
2016-11-20T11:02:53.190Z,986.28
2016-11-20T11:03:53.174Z,986.26
2016-11-20T11:04:53.160Z,986.2
2016-11-20T11:05:53.143Z,986.17
2016-11-20T11:06:53.124Z,986.21
2016-11-20T11:07:53.111Z,986.07
2016-11-20T11:08:53.100Z,986.2
2016-11-20T11:09:53.076Z,986.22
2016-11-20T11:10:53.061Z,986.1
2016-11-20T11:11:53.048Z,986.08
2016-11-20T11:12:53.028Z,986.19
2016-11-20T11:13:53.010Z,986.07
2016-11-20T11:14:52.999Z,986.17
2016-11-20T11:15:52.981Z,986.12
2016-11-20T11:16:52.963Z,986.12
2016-11-20T11:17:52.946Z,986.1
2016-11-20T11:18:52.932Z,986.13
2016-11-20T11:19:52.916Z,986.16
2016-11-20T11:20:52.899Z,986.14
2016-11-20T11:21:52.888Z,986.13
2016-11-20T11:22:52.867Z,986.17
2016-11-20T11:23:52.851Z,986.15
2016-11-20T11:24:52.832Z,986.18
2016-11-20T11:25:52.819Z,986.12
2016-11-20T11:26:52.803Z,986.16
2016-11-20T11:27:52.785Z,986.03
2016-11-20T11:28:52.772Z,986.03
2016-11-20T11:29:52.755Z,985.98
2016-11-20T11:30:52.738Z,986.02
2016-11-20T11:31:52.722Z,986.01
2016-11-20T11:32:52.705Z,986.12
2016-11-20T11:33:52.688Z,986.06
2016-11-20T11:34:52.681Z,986
2016-11-20T11:35:52.656Z,985.93
2016-11-20T11:36:52.643Z,985.95
2016-11-20T11:37:52.628Z,986.08
2016-11-20T11:38:52.611Z,985.98
2016-11-20T11:39:52.593Z,985.93
2016-11-20T11:40:52.591Z,985.86
2016-11-20T11:41:52.561Z,985.88
2016-11-20T11:42:52.546Z,985.82
2016-11-20T11:43:52.529Z,985.6
2016-11-20T11:44:52.515Z,985.91
2016-11-20T11:45:52.500Z,985.86
2016-11-20T11:46:52.486Z,986
2016-11-20T11:47:52.476Z,986
2016-11-20T11:48:52.451Z,986.13
2016-11-20T11:49:52.434Z,985.96
2016-11-20T11:50:52.418Z,985.88
2016-11-20T11:51:52.404Z,986
2016-11-20T11:52:52.391Z,985.86
2016-11-20T11:53:52.370Z,985.97
2016-11-20T11:54:52.353Z,985.92
2016-11-20T11:55:52.338Z,985.96
2016-11-20T11:56:52.324Z,985.95
2016-11-20T11:57:52.304Z,985.88
2016-11-20T11:58:52.286Z,986
2016-11-20T11:59:52.274Z,985.79
2016-11-20T12:00:52.257Z,985.95
2016-11-20T12:01:52.241Z,985.94
2016-11-20T12:02:52.227Z,986
2016-11-20T12:03:52.210Z,985.92
2016-11-20T12:04:52.194Z,986.02
2016-11-20T12:05:52.179Z,985.86
2016-11-20T12:06:52.162Z,985.89
2016-11-20T12:07:52.143Z,985.98
2016-11-20T12:08:52.129Z,985.85
2016-11-20T12:09:52.114Z,985.9
2016-11-20T12:10:52.099Z,985.83
2016-11-20T12:11:52.080Z,985.83
2016-11-20T12:12:52.065Z,985.92
2016-11-20T12:13:52.052Z,985.97
2016-11-20T12:14:52.033Z,986.14
2016-11-20T12:15:52.020Z,986.04
2016-11-20T12:16:52.004Z,986.01
2016-11-20T12:17:51.985Z,986
2016-11-20T12:18:51.973Z,986.02
2016-11-20T12:19:51.955Z,986.1
2016-11-20T12:20:51.939Z,985.99
2016-11-20T12:21:51.921Z,986.06
2016-11-20T12:22:51.909Z,985.96
2016-11-20T12:23:51.889Z,986.04
2016-11-20T12:24:51.873Z,986.04
2016-11-20T12:25:51.857Z,985.99
2016-11-20T12:26:51.849Z,985.99
2016-11-20T12:27:51.827Z,985.88
2016-11-20T12:28:51.809Z,985.95
2016-11-20T12:29:51.794Z,986
2016-11-20T12:30:51.779Z,986.11